Hlavní strana
METAR-TAF:

METAR-TAF

Letiště :

Kemerovo, Rusko

zeměpisná šířka: 55-19-48N, zeměpisná délka: 086-04-48E, výška: 260 m

Aktuální stav počasí

Zpráva byla vytvořena před 27 minutami, v 12:30 UTC
Západojihozápadní vítr 6 kt
Teplota 11°C
Vlhkost vzduchu 22%
Tlak 1016 hPa
Viditelnost 10 km a více
Žádná oblačnost pod 1500 m, nevyskytují se cumulonimby.

METAR: UNEE 231230Z 24003MPS CAVOK 11/M10 Q1016 R23/CLRD60 NOSIG RMK QFE739

Čas: 19:57 (12:57 UTC)

Předpověď počasí

Zpráva byla vytvořena před 1 hodinou a 57 minutami, v 11:00 UTC
Předpověď platná od 23 v 12 UTC do 24 v 12 UTC
Jihovýchodní vítr 6 kt
Viditelnost 10 km a více
Žádná oblačnost pod 1500 m, nevyskytují se cumulonimby.

TAF: UNEE 231100Z 2312/2412 14003MPS CAVOK

Stav a předpovědi počasí z více než 4 000 letišť (zprávy METAR a TAF).

Červené a žluté tečky na mapě představují dostupné meteorologické stanice.

Když kurzor umístíte na tečku, zobrazí se název stanice.

Pak kliknutím zobrazíte stav a předpověď počasí.

Chcete-li změnit mapu, kliknutím na zelené tlačítko se znaménkem +mapu přiblížíte, kliknutím na zelené tlačítko se znaménkem – mapu oddálíte a kliknutím na zelené šipky přejdete na sousední mapy.


METAR-TAF: